Time;durP1;ratioP1;P1;durP2;ratioP2;P2;SDS_P1;SDS_P2;PMS_P1;PMS_P2;Temp;Humidity;BMP_temperature;BMP_pressure;BME280_temperature;BME280_humidity;BME280_pressure;Samples;Min_cycle;Max_cycle;Signal;HPM_P1;HPM_P2
2021/06/14 05:34:59;;;;;;;4.63;3.58;;;22.30;96.30;;;;;;6321982;27;20140;-86
2021/06/14 05:38:02;;;;;;;4.93;3.60;;;22.70;95.20;;;;;;6293193;28;20036;-89
2021/06/14 05:41:03;;;;;;;7.22;4.13;;;;;;;;;;6277649;28;20088;-85
2021/06/14 05:44:04;;;;;;;4.88;3.50;;;22.80;92.20;;;;;;6305084;28;20031;-86
2021/06/14 05:47:05;;;;;;;6.25;3.80;;;;;;;;;;6304853;28;20028;-86
2021/06/14 05:50:06;;;;;;;4.05;3.40;;;;;;;;;;6321812;28;20028;-85
2021/06/14 05:53:07;;;;;;;5.47;4.30;;;;;;;;;;6305357;28;20537;-85
2021/06/14 05:56:08;;;;;;;5.13;3.70;;;;;;;;;;6279289;28;20278;-86
2021/06/14 06:00:15;;;;;;;5.28;3.97;;;24.40;81.50;;;;;;6281898;28;20020;-89
2021/06/14 06:03:52;;;;;;;5.15;3.88;;;22.80;64.10;;;;;;6179895;28;20034;-92
2021/06/14 06:39:38;;;;;;;3.80;3.08;;;27.70;55.00;;;;;;6302738;28;20036;-89
2021/06/14 06:42:59;;;;;;;5.50;3.25;;;29.80;57.00;;;;;;6272368;28;20035;-88
2021/06/14 06:46:18;;;;;;;6.47;3.28;;;29.00;58.50;;;;;;6258577;28;20071;-89
2021/06/14 06:49:19;;;;;;;4.13;3.20;;;28.30;57.80;;;;;;6248713;28;20120;-88
2021/06/14 06:52:20;;;;;;;4.88;3.00;;;;;;;;;;6241680;28;20037;-86
2021/06/14 06:55:21;;;;;;;4.63;3.13;;;28.60;52.70;;;;;;6254236;28;20413;-88
2021/06/14 06:58:22;;;;;;;4.45;3.38;;;;;;;;;;6258936;28;20077;-88
2021/06/14 07:09:24;;;;;;;6.07;3.15;;;;;;;;;;6185490;28;20018;-90
2021/06/14 07:12:41;;;;;;;5.32;3.13;;;;;;;;;;6184610;28;20062;-91
2021/06/14 07:19:39;;;;;;;4.03;2.88;;;32.60;54.20;;;;;;6155468;28;20038;-87
2021/06/14 07:29:56;;;;;;;3.88;3.00;;;30.20;48.30;;;;;;7036760;22;20060;-90
2021/06/14 07:32:57;;;;;;;4.65;3.45;;;30.30;50.00;;;;;;6260248;28;20040;-88
2021/06/14 07:35:57;;;;;;;3.33;3.00;;;30.20;50.10;;;;;;6260664;28;20390;-88
2021/06/14 07:38:58;;;;;;;4.60;3.20;;;30.40;49.70;;;;;;6260912;28;20032;-87
2021/06/14 07:41:58;;;;;;;3.97;3.10;;;30.50;50.40;;;;;;6277946;28;20036;-87
2021/06/14 07:44:59;;;;;;;4.43;2.87;;;30.60;47.40;;;;;;6276568;28;20028;-86
2021/06/14 07:48:00;;;;;;;4.23;2.80;;;30.80;48.20;;;;;;6275657;28;20032;-84
2021/06/14 07:51:00;;;;;;;4.60;2.90;;;30.80;48.30;;;;;;6276367;28;20363;-84
2021/06/14 07:54:01;;;;;;;5.30;2.90;;;30.90;47.50;;;;;;6276919;28;20119;-85
2021/06/14 07:57:02;;;;;;;5.10;3.07;;;31.20;47.90;;;;;;6259272;28;20024;-86
2021/06/14 08:00:06;;;;;;;;;;;31.40;47.50;;;;;;6276867;28;20035;-83
2021/06/14 08:03:08;;;;;;;5.07;3.40;;;31.30;48.80;;;;;;6276578;28;20003;-83
2021/06/14 08:06:08;;;;;;;4.43;3.72;;;31.50;48.00;;;;;;6292876;28;20421;-83
2021/06/14 08:09:12;;;;;;;5.55;3.42;;;31.40;48.90;;;;;;6293107;28;20029;-83
2021/06/14 08:12:12;;;;;;;5.45;3.40;;;31.40;48.50;;;;;;6276207;28;20033;-83
2021/06/14 08:15:21;;;;;;;4.83;3.50;;;31.50;47.90;;;;;;6276328;28;20422;-84
2021/06/14 08:27:54;;;;;;;8.20;3.38;;;31.90;47.70;;;;;;6292576;28;20021;-83
2021/06/14 08:30:54;;;;;;;5.97;3.57;;;32.00;48.20;;;;;;6292054;28;20398;-85
2021/06/14 08:33:55;;;;;;;4.80;3.43;;;31.90;48.20;;;;;;6291882;28;20337;-84
2021/06/14 08:36:56;;;;;;;7.75;3.75;;;31.90;47.90;;;;;;6275259;28;20075;-85
2021/06/14 08:39:56;;;;;;;4.43;3.90;;;31.90;47.10;;;;;;6275791;28;20155;-84
2021/06/14 08:43:08;;;;;;;8.23;4.57;;;32.10;46.80;;;;;;6275570;28;20628;-84
2021/06/14 08:46:09;;;;;;;7.13;3.83;;;32.60;49.30;;;;;;6292617;28;20342;-85
2021/06/14 08:49:09;;;;;;;4.93;3.70;;;32.20;48.50;;;;;;6270490;28;20024;-84
2021/06/14 08:52:10;;;;;;;4.33;3.50;;;32.30;47.90;;;;;;6275412;28;20032;-85
2021/06/14 08:55:12;;;;;;;4.20;3.53;;;32.20;49.20;;;;;;6262579;28;20837;-85
2021/06/14 08:58:12;;;;;;;4.68;3.42;;;32.40;48.80;;;;;;6261172;28;20262;-85
2021/06/14 09:01:13;;;;;;;6.72;3.47;;;32.40;49.60;;;;;;6275242;28;20036;-85
2021/06/14 09:04:14;;;;;;;4.95;3.10;;;32.40;49.90;;;;;;6291951;28;20029;-85
2021/06/14 09:07:14;;;;;;;6.90;3.57;;;32.40;48.50;;;;;;6274922;28;20052;-85
2021/06/14 09:10:21;;;;;;;8.67;3.40;;;32.30;49.30;;;;;;6275217;28;20837;-86
2021/06/14 09:13:24;;;;;;;9.52;3.90;;;32.40;49.00;;;;;;6291758;28;20049;-86
2021/06/14 09:16:24;;;;;;;4.32;3.15;;;32.50;48.00;;;;;;6291412;28;20025;-86
2021/06/14 09:19:40;;;;;;;4.45;3.47;;;32.30;49.00;;;;;;6275320;28;20477;-85
2021/06/14 09:22:41;;;;;;;6.15;3.25;;;32.30;48.80;;;;;;6291603;28;20043;-85
2021/06/14 09:25:47;;;;;;;4.07;3.00;;;32.30;47.60;;;;;;6291551;28;20056;-85
2021/06/14 09:28:48;;;;;;;7.38;3.45;;;32.30;50.00;;;;;;6274877;28;20052;-85
2021/06/14 09:31:58;;;;;;;4.57;3.40;;;32.20;49.60;;;;;;6274905;28;20035;-85
2021/06/14 09:34:59;;;;;;;7.38;3.53;;;32.30;49.00;;;;;;6275143;28;20468;-84
2021/06/14 09:38:16;;;;;;;5.07;3.83;;;32.10;49.20;;;;;;6274302;28;20025;-84
2021/06/14 09:41:17;;;;;;;6.15;3.53;;;32.00;49.80;;;;;;6291781;28;20200;-85
2021/06/14 09:44:32;;;;;;;5.00;3.50;;;32.30;50.60;;;;;;6274154;28;20039;-85
2021/06/14 09:47:33;;;;;;;7.43;3.95;;;32.00;49.20;;;;;;6274576;28;20032;-85
2021/06/14 09:50:33;;;;;;;9.02;3.50;;;32.00;56.00;;;;;;6290964;28;20531;-84
2021/06/14 09:53:42;;;;;;;5.45;3.60;;;31.90;54.80;;;;;;6291214;28;20032;-84
2021/06/14 09:56:44;;;;;;;5.75;3.67;;;32.60;54.80;;;;;;6291026;28;20793;-85
2021/06/14 09:59:48;;;;;;;5.88;3.75;;;;;;;;;;6274197;28;20077;-84
2021/06/14 10:02:56;;;;;;;4.70;3.33;;;32.40;52.50;;;;;;6274782;28;20028;-85
2021/06/14 10:05:56;;;;;;;4.90;3.53;;;32.20;50.50;;;;;;6291330;28;20098;-84
2021/06/14 10:08:57;;;;;;;5.05;3.38;;;32.00;49.10;;;;;;6290132;28;20016;-85
2021/06/14 10:11:57;;;;;;;5.68;3.42;;;32.20;49.40;;;;;;6272921;28;20051;-84
2021/06/14 10:15:02;;;;;;;4.18;3.33;;;32.20;48.40;;;;;;6255063;28;20033;-85
2021/06/14 10:18:09;;;;;;;5.10;3.63;;;32.20;49.00;;;;;;6290422;28;20481;-84
2021/06/14 10:21:34;;;;;;;5.88;3.45;;;32.20;49.20;;;;;;6278039;28;20060;-85
2021/06/14 10:24:34;;;;;;;4.25;3.42;;;32.50;49.70;;;;;;6295604;28;20117;-81
2021/06/14 10:27:35;;;;;;;5.15;4.05;;;32.40;49.50;;;;;;6295978;28;20471;-81
2021/06/14 10:30:36;;;;;;;7.50;4.13;;;32.20;48.80;;;;;;6278580;28;20057;-81
2021/06/14 10:33:37;;;;;;;4.88;2.90;;;32.00;48.60;;;;;;6278554;28;20039;-82
2021/06/14 10:36:37;;;;;;;4.87;3.47;;;32.10;50.60;;;;;;6278213;28;20029;-81
2021/06/14 10:39:41;;;;;;;4.15;3.10;;;32.00;51.40;;;;;;6278485;28;20279;-81
2021/06/14 10:42:45;;;;;;;5.03;3.47;;;32.10;48.10;;;;;;6279046;28;20044;-81
2021/06/14 10:45:45;;;;;;;4.50;3.30;;;31.80;48.90;;;;;;6295235;28;20073;-82
2021/06/14 10:48:47;;;;;;;4.78;3.20;;;31.80;49.40;;;;;;6295006;28;20063;-81
2021/06/14 10:51:58;;;;;;;8.48;3.33;;;31.90;50.00;;;;;;6295208;28;20032;-81
2021/06/14 10:55:07;;;;;;;5.43;3.63;;;32.00;49.30;;;;;;6294423;28;20115;-79
2021/06/14 10:58:17;;;;;;;5.53;3.53;;;31.90;48.80;;;;;;6278295;28;20051;-81
2021/06/14 11:01:18;;;;;;;7.10;3.42;;;31.90;50.20;;;;;;6294764;28;20094;-84
2021/06/14 11:04:23;;;;;;;7.22;3.60;;;31.60;50.20;;;;;;6294680;28;20048;-81
2021/06/14 11:07:30;;;;;;;5.00;3.53;;;31.40;51.50;;;;;;6293952;28;20111;-81
2021/06/14 11:10:31;;;;;;;8.73;3.10;;;31.40;51.20;;;;;;6294544;28;20068;-81
2021/06/14 11:13:31;;;;;;;4.40;3.17;;;31.60;52.00;;;;;;6277727;28;20046;-80
2021/06/14 11:16:36;;;;;;;4.40;3.25;;;31.60;51.30;;;;;;6293993;28;20036;-81
2021/06/14 11:19:37;;;;;;;5.03;3.30;;;31.50;51.10;;;;;;6295635;28;20112;-81
2021/06/14 11:22:54;;;;;;;5.15;3.53;;;31.40;50.80;;;;;;6295612;28;20028;-80
2021/06/14 11:25:55;;;;;;;5.60;3.20;;;31.30;51.00;;;;;;6294272;28;20032;-81
2021/06/14 11:28:56;;;;;;;5.22;3.33;;;31.20;53.60;;;;;;6292370;28;20083;-80
2021/06/14 11:32:01;;;;;;;5.55;3.50;;;31.40;53.20;;;;;;6292092;28;20024;-81
2021/06/14 11:35:04;;;;;;;4.68;3.55;;;31.50;52.50;;;;;;6292240;28;20036;-81
2021/06/14 11:38:05;;;;;;;6.43;3.70;;;31.40;53.20;;;;;;6291781;28;20485;-80
2021/06/14 11:41:05;;;;;;;5.68;3.65;;;31.30;54.00;;;;;;6292731;28;20029;-80
2021/06/14 11:44:30;;;;;;;7.83;3.70;;;31.30;53.80;;;;;;6276850;28;20094;-80
2021/06/14 11:47:30;;;;;;;5.47;3.72;;;31.20;53.90;;;;;;6294296;28;20081;-80
2021/06/14 11:50:32;;;;;;;4.60;3.93;;;31.00;53.20;;;;;;6293434;28;20033;-80
2021/06/14 11:53:53;;;;;;;7.82;3.20;;;31.20;55.10;;;;;;6293759;28;20649;-80
2021/06/14 11:56:59;;;;;;;4.68;3.42;;;31.00;72.70;;;;;;6293611;28;20201;-80
2021/06/14 12:00:00;;;;;;;5.25;3.40;;;30.90;59.30;;;;;;6277297;28;20028;-84
2021/06/14 12:03:01;;;;;;;4.85;3.50;;;31.10;61.40;;;;;;6276756;28;20120;-80
2021/06/14 12:06:01;;;;;;;4.20;3.78;;;30.50;54.50;;;;;;6276622;28;20442;-82
2021/06/14 12:09:09;;;;;;;6.17;3.93;;;30.60;55.60;;;;;;6291896;28;20028;-80
2021/06/14 12:12:10;;;;;;;5.70;3.97;;;30.50;55.10;;;;;;6292893;28;20056;-80
2021/06/14 12:15:11;;;;;;;5.55;3.42;;;30.20;56.30;;;;;;6292949;28;20079;-81
2021/06/14 12:18:12;;;;;;;6.22;3.63;;;30.10;56.40;;;;;;6292360;28;20028;-81
2021/06/14 12:21:12;;;;;;;5.43;3.80;;;30.10;59.20;;;;;;6276224;28;20113;-81
2021/06/14 12:24:17;;;;;;;5.50;4.00;;;30.00;55.40;;;;;;6275440;28;20045;-81
2021/06/14 12:27:17;;;;;;;4.35;3.78;;;29.60;57.70;;;;;;6275741;28;20032;-81
2021/06/14 12:30:18;;;;;;;4.75;4.20;;;29.50;59.30;;;;;;6292310;28;20072;-80
2021/06/14 12:33:26;;;;;;;5.65;4.15;;;29.50;57.90;;;;;;6292652;28;20051;-81
2021/06/14 12:36:26;;;;;;;4.45;3.75;;;29.50;59.60;;;;;;6292126;28;20426;-81
2021/06/14 12:39:27;;;;;;;6.53;4.07;;;29.50;59.50;;;;;;6292424;28;20032;-81
2021/06/14 12:42:27;;;;;;;4.47;4.07;;;29.60;58.90;;;;;;6293137;28;20024;-81
2021/06/14 12:45:28;;;;;;;4.70;4.03;;;29.90;59.00;;;;;;6291899;28;20382;-81
2021/06/14 12:48:29;;;;;;;5.80;4.10;;;29.70;57.50;;;;;;6292107;28;20818;-81
2021/06/14 12:51:34;;;;;;;4.77;3.73;;;29.60;58.10;;;;;;6293223;28;20024;-81
2021/06/14 12:54:35;;;;;;;4.68;3.75;;;29.70;57.60;;;;;;6292213;28;20040;-81
2021/06/14 12:57:49;;;;;;;6.35;4.20;;;29.60;58.60;;;;;;6291785;28;20036;-81
2021/06/14 13:01:02;;;;;;;4.97;4.47;;;29.50;58.90;;;;;;6292102;28;20458;-80
2021/06/14 13:04:02;;;;;;;5.75;4.30;;;29.40;60.80;;;;;;6275173;28;20025;-80
2021/06/14 13:07:17;;;;;;;5.40;4.15;;;29.50;60.30;;;;;;6274947;28;20024;-80
2021/06/14 13:10:18;;;;;;;7.00;4.20;;;29.40;59.10;;;;;;6275200;28;20036;-80
2021/06/14 13:13:20;;;;;;;;;;;29.40;65.20;;;;;;6275733;28;20028;-80
2021/06/14 13:16:21;;;;;;;10.23;4.47;;;29.20;65.50;;;;;;6291238;28;20395;-81
2021/06/14 13:19:26;;;;;;;6.40;4.00;;;29.40;66.00;;;;;;6291781;28;20078;-80
2021/06/14 13:22:33;;;;;;;5.90;4.47;;;29.40;66.00;;;;;;6291408;28;20036;-80
2021/06/14 13:25:36;;;;;;;4.88;3.95;;;29.70;67.10;;;;;;6292421;28;20028;-80
2021/06/14 13:28:41;;;;;;;8.05;4.35;;;29.90;65.00;;;;;;6291350;28;20052;-81
2021/06/14 13:31:43;;;;;;;13.57;4.80;;;29.90;65.30;;;;;;6275212;28;20032;-80
2021/06/14 13:34:51;;;;;;;;;;;29.80;64.90;;;;;;6291639;28;20048;-81
2021/06/14 13:37:54;;;;;;;8.77;4.35;;;29.70;64.40;;;;;;6274774;28;19932;-80
2021/06/14 13:40:56;;;;;;;5.40;4.20;;;29.90;67.60;;;;;;6292884;28;20082;-80
2021/06/14 13:44:06;;;;;;;7.63;4.07;;;28.80;66.00;;;;;;6291540;28;20036;-80
2021/06/14 13:47:57;;;;;;;9.73;4.95;;;30.20;68.50;;;;;;6291707;28;20443;-80
2021/06/14 13:51:17;;;;;;;6.87;4.50;;;31.50;65.40;;;;;;6292059;28;20028;-80
2021/06/14 13:54:18;;;;;;;10.00;4.80;;;;;;;;;;6276366;28;20689;-80
2021/06/14 13:57:19;;;;;;;6.68;4.63;;;30.10;63.20;;;;;;6295719;28;20036;-80
2021/06/14 14:00:21;;;;;;;7.77;4.57;;;30.30;66.30;;;;;;6295783;28;20493;-80
2021/06/14 14:03:27;;;;;;;4.95;4.20;;;29.90;65.30;;;;;;6295585;28;20359;-81
2021/06/14 14:06:28;;;;;;;7.70;4.43;;;30.10;67.60;;;;;;6295661;28;20044;-80
2021/06/14 14:09:28;;;;;;;5.93;4.27;;;30.10;65.30;;;;;;6295716;28;20072;-80
2021/06/14 14:12:29;;;;;;;7.67;4.00;;;30.10;64.10;;;;;;6295836;28;20099;-80
2021/06/14 14:15:30;;;;;;;6.67;4.07;;;30.10;67.60;;;;;;6296164;28;20028;-80
2021/06/14 14:18:30;;;;;;;6.90;4.05;;;29.70;63.80;;;;;;6279025;28;20025;-80
2021/06/14 14:21:31;;;;;;;5.17;4.37;;;29.60;65.50;;;;;;6296996;28;20573;-80
2021/06/14 14:24:32;;;;;;;6.57;4.20;;;29.90;66.90;;;;;;6295681;28;20031;-80
2021/06/14 14:27:33;;;;;;;5.57;4.40;;;29.90;66.90;;;;;;6295672;28;20028;-80
2021/06/14 14:30:48;;;;;;;7.20;4.55;;;30.00;66.80;;;;;;6295312;28;20163;-80
2021/06/14 14:33:49;;;;;;;5.07;4.22;;;30.00;66.50;;;;;;6295362;28;20071;-81
2021/06/14 14:36:51;;;;;;;4.60;4.00;;;30.00;65.90;;;;;;6278289;28;20401;-80
2021/06/14 14:40:13;;;;;;;5.78;4.00;;;30.10;67.20;;;;;;6295013;28;20031;-81
2021/06/14 14:43:13;;;;;;;9.15;4.45;;;30.00;63.00;;;;;;6295519;28;20089;-80
2021/06/14 14:46:14;;;;;;;4.73;4.07;;;30.00;66.30;;;;;;6295003;28;20416;-80
2021/06/14 14:49:16;;;;;;;6.35;4.10;;;30.00;65.50;;;;;;6294749;28;20029;-80
2021/06/14 14:52:17;;;;;;;5.28;4.25;;;30.10;64.80;;;;;;6277905;28;20025;-80
2021/06/14 14:55:22;;;;;;;7.40;4.28;;;30.10;62.40;;;;;;6295425;28;20036;-80
2021/06/14 14:58:47;;;;;;;5.88;4.03;;;29.90;63.70;;;;;;6295037;28;20039;-85
2021/06/14 15:01:46;;;;;;;6.05;3.72;;;29.80;65.20;;;;;;6281213;28;20043;-84
2021/06/14 15:04:47;;;;;;;6.33;3.70;;;29.90;66.60;;;;;;6277551;28;20029;-85
2021/06/14 15:07:48;;;;;;;12.07;4.93;;;29.80;64.90;;;;;;6278165;28;20036;-86
2021/06/14 15:10:48;;;;;;;12.10;4.55;;;29.90;65.40;;;;;;6278242;28;20068;-86
2021/06/14 15:13:49;;;;;;;10.13;5.03;;;29.70;65.00;;;;;;6266312;28;20478;-86
2021/06/14 15:16:50;;;;;;;6.80;4.00;;;29.80;67.40;;;;;;6277653;28;20028;-86
2021/06/14 15:19:50;;;;;;;7.40;4.07;;;29.70;67.30;;;;;;6277563;28;20490;-82
2021/06/14 15:22:53;;;;;;;4.82;3.75;;;29.90;65.30;;;;;;6294264;28;20021;-88
2021/06/14 15:25:54;;;;;;;6.13;4.22;;;29.60;64.50;;;;;;6278236;28;20028;-85
2021/06/14 15:28:55;;;;;;;5.13;3.57;;;29.90;65.70;;;;;;6294226;28;20059;-86
2021/06/14 15:31:55;;;;;;;7.13;4.55;;;29.60;62.70;;;;;;6294175;28;20436;-85
2021/06/14 15:34:56;;;;;;;6.57;4.47;;;29.60;64.10;;;;;;6277148;28;20048;-85
2021/06/14 15:37:58;;;;;;;4.30;3.50;;;29.70;65.00;;;;;;6294132;28;20154;-85
2021/06/14 15:40:59;;;;;;;4.82;3.85;;;29.70;65.10;;;;;;6274928;28;20036;-85
2021/06/14 15:44:00;;;;;;;;;;;29.90;78.30;;;;;;6294449;28;20034;-85
2021/06/14 15:47:03;;;;;;;6.40;4.30;;;29.80;78.30;;;;;;6276991;28;19913;-82
2021/06/14 15:50:04;;;;;;;5.65;3.92;;;29.40;75.90;;;;;;6278944;28;20036;-83
2021/06/14 15:53:05;;;;;;;5.50;4.32;;;29.50;77.30;;;;;;6293709;28;20123;-89
2021/06/14 15:56:06;;;;;;;7.28;4.55;;;29.30;76.40;;;;;;6277039;28;20039;-86
2021/06/14 15:59:07;;;;;;;12.00;4.07;;;29.50;77.50;;;;;;6276609;28;20032;-88
2021/06/14 16:02:08;;;;;;;5.28;3.95;;;29.30;76.40;;;;;;6277424;28;20036;-84
2021/06/14 16:05:10;;;;;;;7.23;4.47;;;29.60;77.30;;;;;;6293079;28;20515;-81
2021/06/14 16:08:11;;;;;;;5.47;3.60;;;29.30;65.10;;;;;;6293770;28;20570;-83
2021/06/14 16:11:11;;;;;;;5.97;4.18;;;29.30;65.80;;;;;;6276800;28;20055;-83
2021/06/14 16:14:13;;;;;;;7.07;3.90;;;29.20;64.50;;;;;;6293223;28;20469;-84
2021/06/14 16:17:14;;;;;;;5.53;3.65;;;29.20;65.00;;;;;;6292405;28;20070;-84
2021/06/14 16:20:16;;;;;;;6.00;3.73;;;29.10;68.10;;;;;;6271984;28;20024;-84
2021/06/14 16:23:17;;;;;;;5.78;4.20;;;29.20;66.10;;;;;;6276907;28;20119;-81
2021/06/14 16:26:18;;;;;;;7.53;4.65;;;29.00;65.60;;;;;;6293048;28;20036;-85
2021/06/14 16:29:19;;;;;;;9.65;4.25;;;28.80;66.00;;;;;;6275458;28;20146;-86
2021/06/14 16:32:20;;;;;;;7.73;4.10;;;28.80;68.90;;;;;;6259430;28;20033;-82
2021/06/14 16:35:20;;;;;;;4.93;3.70;;;28.80;68.10;;;;;;6294158;28;20029;-81
2021/06/14 16:38:21;;;;;;;5.50;3.60;;;28.70;68.20;;;;;;6292879;28;20039;-82
2021/06/14 16:41:21;;;;;;;5.23;3.97;;;28.70;68.00;;;;;;6292868;28;20032;-80
2021/06/14 16:44:25;;;;;;;7.80;3.87;;;28.70;67.50;;;;;;6292451;28;20043;-83
2021/06/14 16:47:26;;;;;;;5.75;4.30;;;28.90;67.40;;;;;;6275934;28;20024;-80
2021/06/14 16:50:27;;;;;;;7.03;4.30;;;28.60;68.80;;;;;;6294015;28;20032;-79
2021/06/14 16:53:27;;;;;;;4.60;3.77;;;28.60;68.30;;;;;;6291847;28;20068;-78
2021/06/14 16:56:28;;;;;;;5.73;3.90;;;28.50;69.40;;;;;;6293468;28;20050;-78
2021/06/14 16:59:28;;;;;;;5.20;3.93;;;28.50;69.10;;;;;;6292071;28;20032;-78
2021/06/14 17:02:29;;;;;;;4.40;3.70;;;28.50;69.70;;;;;;6294103;28;20020;-79
2021/06/14 17:05:30;;;;;;;6.07;3.53;;;28.40;68.40;;;;;;6291852;28;20535;-79
2021/06/14 17:08:30;;;;;;;9.40;4.17;;;28.40;68.80;;;;;;6291720;28;20496;-77
2021/06/14 17:11:31;;;;;;;6.33;3.97;;;;;;;;;;6293203;28;20035;-82
2021/06/14 17:15:04;;;;;;;6.28;4.25;;;28.20;64.20;;;;;;6274989;28;20036;-82
2021/06/14 17:18:05;;;;;;;7.00;3.95;;;28.30;70.20;;;;;;6260901;28;20489;-81
2021/06/14 17:21:06;;;;;;;4.93;4.07;;;28.10;69.00;;;;;;6275096;28;20024;-82
2021/06/14 17:24:07;;;;;;;5.93;3.60;;;28.00;70.70;;;;;;6291288;28;20032;-79
2021/06/14 17:27:08;;;;;;;9.88;4.15;;;28.00;67.10;;;;;;6291106;28;20258;-80
2021/06/14 17:30:09;;;;;;;5.47;3.67;;;27.90;70.50;;;;;;6276354;28;20063;-81
2021/06/14 17:33:11;;;;;;;5.78;4.00;;;27.90;70.90;;;;;;6281562;28;20029;-81
2021/06/14 17:36:12;;;;;;;6.35;4.53;;;27.80;71.30;;;;;;6273712;28;20691;-80
2021/06/14 17:39:12;;;;;;;6.87;4.17;;;27.60;72.20;;;;;;6273251;28;20058;-83
2021/06/14 17:42:13;;;;;;;6.43;4.03;;;27.50;71.70;;;;;;6291419;28;20479;-82
2021/06/14 17:45:14;;;;;;;7.10;4.50;;;27.60;72.80;;;;;;6274579;28;20576;-79
2021/06/14 17:48:15;;;;;;;7.82;4.65;;;27.50;70.50;;;;;;6291574;28;20462;-83
2021/06/14 17:51:16;;;;;;;4.80;4.30;;;27.40;71.60;;;;;;6291214;28;20043;-81
2021/06/14 17:54:16;;;;;;;6.70;4.43;;;27.40;72.00;;;;;;6291620;28;20483;-81
2021/06/14 17:57:17;;;;;;;8.63;4.20;;;27.30;72.00;;;;;;6274588;28;20082;-84
2021/06/14 18:00:19;;;;;;;5.07;4.00;;;27.30;71.80;;;;;;6291291;28;20064;-81
2021/06/14 18:03:20;;;;;;;;;;;27.20;71.60;;;;;;6292007;28;20394;-80
2021/06/14 18:06:21;;;;;;;11.43;5.10;;;27.10;74.00;;;;;;6274597;28;19916;-84
2021/06/14 18:09:21;;;;;;;5.27;3.97;;;27.00;75.30;;;;;;6289724;28;20028;-81
2021/06/14 18:12:22;;;;;;;9.40;3.87;;;26.90;75.70;;;;;;6290478;28;20033;-80
2021/06/14 18:15:23;;;;;;;8.87;4.73;;;26.80;75.30;;;;;;6261481;28;20040;-82
2021/06/14 18:18:24;;;;;;;6.25;4.28;;;26.70;74.90;;;;;;6290944;28;20032;-80
2021/06/14 18:21:24;;;;;;;5.03;4.20;;;26.80;74.20;;;;;;6291101;28;20028;-82
2021/06/14 18:24:25;;;;;;;7.93;4.20;;;26.60;74.00;;;;;;6290650;28;20032;-81
2021/06/14 18:27:31;;;;;;;6.63;4.00;;;26.60;73.80;;;;;;6274261;28;20429;-84
2021/06/14 18:30:33;;;;;;;7.90;4.47;;;26.60;73.50;;;;;;6268275;28;20078;-82
2021/06/14 18:33:33;;;;;;;;;;;26.50;73.40;;;;;;6289416;28;20048;-83
2021/06/14 18:36:34;;;;;;;18.23;6.32;;;26.30;79.70;;;;;;6288865;28;19909;-81
2021/06/14 18:39:34;;;;;;;14.83;5.87;;;26.00;72.10;;;;;;6272263;28;20386;-83
2021/06/14 18:42:35;;;;;;;10.13;5.40;;;25.80;72.50;;;;;;6264390;28;20043;-82
2021/06/14 18:45:36;;;;;;;12.73;5.47;;;25.60;72.60;;;;;;6293556;28;20039;-82
2021/06/14 18:48:36;;;;;;;7.13;5.05;;;25.40;73.60;;;;;;6277037;28;20028;-84
2021/06/14 18:51:39;;;;;;;7.30;4.90;;;25.20;73.40;;;;;;6295036;28;20676;-81
2021/06/14 18:54:40;;;;;;;7.57;5.93;;;25.10;74.60;;;;;;6278776;28;20448;-84
2021/06/14 18:57:41;;;;;;;6.67;5.07;;;25.10;87.30;;;;;;6278173;28;20024;-82
2021/06/14 19:00:42;;;;;;;8.73;5.57;;;24.70;88.30;;;;;;6274294;28;20082;-83
2021/06/14 19:03:42;;;;;;;11.37;5.40;;;24.20;90.00;;;;;;6278326;28;20462;-82
2021/06/14 19:06:43;;;;;;;7.70;5.17;;;24.20;91.00;;;;;;6276837;28;20376;-83
2021/06/14 19:09:44;;;;;;;7.53;4.90;;;24.10;91.20;;;;;;6294581;28;20031;-82
2021/06/14 19:12:45;;;;;;;7.10;4.85;;;24.10;91.20;;;;;;6266811;28;20020;-81
2021/06/14 19:15:46;;;;;;;9.97;5.13;;;23.90;91.50;;;;;;6275662;28;20442;-80
2021/06/14 19:18:46;;;;;;;6.53;4.93;;;23.90;92.10;;;;;;6293333;28;20028;-80
2021/06/14 19:21:47;;;;;;;9.53;5.03;;;23.40;93.10;;;;;;6294319;28;20029;-83
2021/06/14 19:24:48;;;;;;;9.47;5.27;;;23.20;93.50;;;;;;6277305;28;20039;-80
2021/06/14 19:27:48;;;;;;;6.20;5.00;;;23.00;93.70;;;;;;6294028;28;20068;-77
2021/06/14 19:30:49;;;;;;;7.43;5.10;;;22.80;93.80;;;;;;6293897;28;20469;-78
2021/06/14 19:33:49;;;;;;;9.67;5.20;;;22.60;99.60;;;;;;6293077;28;20447;-78
2021/06/14 19:36:50;;;;;;;8.43;5.00;;;21.20;99.50;;;;;;6293942;28;20051;-80
2021/06/14 19:39:51;;;;;;;7.25;5.70;;;22.30;99.90;;;;;;6293293;28;20094;-78
2021/06/14 19:42:52;;;;;;;5.50;4.90;;;22.00;99.90;;;;;;6294841;28;20033;-78
2021/06/14 19:45:52;;;;;;;7.25;5.35;;;22.30;99.90;;;;;;6293314;28;20072;-76
2021/06/14 19:48:53;;;;;;;6.25;5.65;;;21.90;99.90;;;;;;6293756;28;20035;-75
2021/06/14 19:51:54;;;;;;;7.15;5.45;;;21.80;99.90;;;;;;6293602;28;20055;-76
2021/06/14 19:54:54;;;;;;;7.78;5.88;;;21.70;99.90;;;;;;6293687;28;20123;-79
2021/06/14 19:57:57;;;;;;;10.40;5.78;;;21.80;99.90;;;;;;6293302;28;20056;-77
2021/06/14 20:00:57;;;;;;;9.40;5.50;;;21.70;99.90;;;;;;6294049;28;20178;-79
2021/06/14 20:03:58;;;;;;;8.95;5.22;;;21.50;99.90;;;;;;6293027;28;20036;-80
2021/06/14 20:06:59;;;;;;;9.75;5.80;;;21.40;99.90;;;;;;6280798;28;20043;-77
2021/06/14 20:09:59;;;;;;;6.13;5.50;;;21.50;99.90;;;;;;6295909;28;20031;-78
2021/06/14 20:13:00;;;;;;;8.10;5.85;;;20.60;99.90;;;;;;6276859;28;20048;-78
2021/06/14 20:16:01;;;;;;;7.45;5.97;;;20.90;99.90;;;;;;6294830;28;20020;-77
2021/06/14 20:19:01;;;;;;;6.43;5.40;;;20.90;99.90;;;;;;6294126;28;20032;-77
2021/06/14 20:22:03;;;;;;;11.43;5.70;;;20.80;99.90;;;;;;6277038;28;20039;-78
2021/06/14 20:25:08;;;;;;;6.63;5.93;;;20.70;99.90;;;;;;6292860;28;20501;-78
2021/06/14 20:28:08;;;;;;;9.77;5.85;;;20.30;99.90;;;;;;6292000;28;20024;-79
2021/06/14 20:31:09;;;;;;;7.32;5.85;;;20.40;99.90;;;;;;6292481;28;20098;-79
2021/06/14 20:34:09;;;;;;;7.78;5.20;;;20.40;99.90;;;;;;6267637;28;20044;-83
2021/06/14 20:37:10;;;;;;;7.05;5.88;;;20.30;99.90;;;;;;6275767;28;20027;-79
2021/06/14 20:40:12;;;;;;;11.30;5.65;;;20.30;99.90;;;;;;6291984;28;20025;-78
2021/06/14 20:43:12;;;;;;;8.10;6.15;;;20.30;99.90;;;;;;6292439;28;20036;-80
2021/06/14 20:46:13;;;;;;;9.70;6.35;;;20.20;99.90;;;;;;6292555;28;20115;-82
2021/06/14 20:49:13;;;;;;;12.40;6.63;;;20.10;99.90;;;;;;6291584;28;20028;-81
2021/06/14 20:52:15;;;;;;;8.55;6.43;;;20.20;99.90;;;;;;6275372;28;20522;-82
2021/06/14 20:55:15;;;;;;;8.13;5.72;;;20.20;99.90;;;;;;6292538;28;20159;-79
2021/06/14 20:58:16;;;;;;;8.85;6.55;;;20.00;99.90;;;;;;6274950;28;20032;-79
2021/06/14 21:01:17;;;;;;;9.10;6.43;;;20.00;99.90;;;;;;6291619;28;20040;-79
2021/06/14 21:04:17;;;;;;;9.88;6.43;;;19.80;99.90;;;;;;6275437;28;20032;-81
2021/06/14 21:07:18;;;;;;;11.52;6.10;;;19.90;99.90;;;;;;6292015;28;20021;-79
2021/06/14 21:10:19;;;;;;;6.55;5.85;;;19.50;99.90;;;;;;6292259;28;20541;-81
2021/06/14 21:13:20;;;;;;;9.18;6.72;;;19.60;99.90;;;;;;6291830;28;20120;-79
2021/06/14 21:16:20;;;;;;;8.02;6.20;;;19.80;99.90;;;;;;6291863;28;20039;-80
2021/06/14 21:19:21;;;;;;;10.13;7.25;;;19.50;99.90;;;;;;6290803;28;20032;-79
2021/06/14 21:22:22;;;;;;;10.70;7.05;;;19.60;99.90;;;;;;6289720;28;20417;-81
2021/06/14 21:25:22;;;;;;;7.25;6.53;;;19.30;99.90;;;;;;6273572;28;20090;-81
2021/06/14 21:28:23;;;;;;;11.55;7.13;;;19.30;99.90;;;;;;6291467;28;20434;-82
2021/06/14 21:31:25;;;;;;;8.98;6.28;;;18.30;99.90;;;;;;6275909;28;20771;-82
2021/06/14 21:34:26;;;;;;;9.23;6.90;;;19.10;99.90;;;;;;6275039;28;20120;-83
2021/06/14 21:37:27;;;;;;;7.63;6.00;;;19.00;99.90;;;;;;6291339;28;20025;-82
2021/06/14 21:40:28;;;;;;;7.65;6.43;;;19.00;99.90;;;;;;6291653;28;20542;-82
2021/06/14 21:43:30;;;;;;;9.13;6.57;;;18.90;99.90;;;;;;6273927;28;20048;-81
2021/06/14 21:46:31;;;;;;;8.63;6.25;;;18.80;99.90;;;;;;6274801;28;20033;-81
2021/06/14 21:49:32;;;;;;;13.38;6.75;;;18.90;99.90;;;;;;6291385;28;20035;-82
2021/06/14 21:52:33;;;;;;;8.20;6.53;;;18.80;99.90;;;;;;6274730;28;20120;-81
2021/06/14 21:55:33;;;;;;;8.20;6.90;;;18.80;99.90;;;;;;6291221;28;20039;-81
2021/06/14 21:58:34;;;;;;;10.60;6.82;;;18.80;99.90;;;;;;6274289;28;20458;-83
2021/06/14 22:01:38;;;;;;;10.27;6.57;;;18.80;99.90;;;;;;6290971;28;20025;-84
2021/06/14 22:04:38;;;;;;;8.43;6.35;;;18.80;99.90;;;;;;6291360;28;20382;-81
2021/06/14 22:07:39;;;;;;;9.65;6.88;;;18.70;99.90;;;;;;6291035;28;20028;-82
2021/06/14 22:10:40;;;;;;;6.70;6.00;;;18.70;99.90;;;;;;6274524;28;20480;-82
2021/06/14 22:13:40;;;;;;;11.88;6.53;;;18.60;99.90;;;;;;6274178;28;20032;-82
2021/06/14 22:16:41;;;;;;;9.80;7.10;;;18.70;99.90;;;;;;6277217;28;20081;-81
2021/06/14 22:19:42;;;;;;;8.05;7.18;;;18.60;99.90;;;;;;6295360;28;20025;-83
2021/06/14 22:22:42;;;;;;;9.02;6.60;;;18.40;99.90;;;;;;6278695;28;20038;-82
2021/06/14 22:25:43;;;;;;;10.90;7.20;;;18.30;99.90;;;;;;6272223;28;20051;-83
2021/06/14 22:28:43;;;;;;;9.38;7.82;;;18.20;99.90;;;;;;6278623;28;20049;-83
2021/06/14 22:31:44;;;;;;;9.45;7.20;;;18.10;99.90;;;;;;6295785;28;20039;-83